sensor_id;sensor_type;location;lat;lon;timestamp;pressure;altitude;pressure_sealevel;temperature;humidity
7157;BME280;3620;49.862;8.758;2022-12-29T00:01:50;98544.13;;;12.74;80.93
7157;BME280;3620;49.862;8.758;2022-12-29T00:04:18;98550.34;;;12.73;81.39
7157;BME280;3620;49.862;8.758;2022-12-29T00:06:46;98559.53;;;12.80;80.63
7157;BME280;3620;49.862;8.758;2022-12-29T00:09:14;98537.34;;;12.70;81.47
7157;BME280;3620;49.862;8.758;2022-12-29T00:11:41;98532.63;;;12.75;81.56
7157;BME280;3620;49.862;8.758;2022-12-29T00:14:09;98526.78;;;12.70;82.79
7157;BME280;3620;49.862;8.758;2022-12-29T00:16:53;98535.00;;;12.66;83.42
7157;BME280;3620;49.862;8.758;2022-12-29T00:19:19;98536.91;;;12.64;83.58
7157;BME280;3620;49.862;8.758;2022-12-29T00:22:05;98533.59;;;12.60;83.83
7157;BME280;3620;49.862;8.758;2022-12-29T00:24:49;98527.78;;;12.55;83.95
7157;BME280;3620;49.862;8.758;2022-12-29T00:27:33;98532.66;;;12.61;83.58
7157;BME280;3620;49.862;8.758;2022-12-29T00:30:19;98535.25;;;12.48;85.83
7157;BME280;3620;49.862;8.758;2022-12-29T00:33:09;98528.97;;;12.37;88.28
7157;BME280;3620;49.862;8.758;2022-12-29T00:35:56;98546.88;;;12.18;91.43
7157;BME280;3620;49.862;8.758;2022-12-29T00:38:26;98540.31;;;12.11;93.26
7157;BME280;3620;49.862;8.758;2022-12-29T00:41:11;98540.03;;;11.87;94.52
7157;BME280;3620;49.862;8.758;2022-12-29T00:43:55;98532.63;;;11.80;95.61
7157;BME280;3620;49.862;8.758;2022-12-29T00:46:36;98537.50;;;11.71;99.81
7157;BME280;3620;49.862;8.758;2022-12-29T00:49:03;98532.56;;;11.51;100.00
7157;BME280;3620;49.862;8.758;2022-12-29T00:51:47;98537.16;;;11.48;100.00
7157;BME280;3620;49.862;8.758;2022-12-29T00:54:15;98526.88;;;11.29;100.00
7157;BME280;3620;49.862;8.758;2022-12-29T00:56:42;98540.03;;;11.29;100.00
7157;BME280;3620;49.862;8.758;2022-12-29T00:59:10;98548.97;;;11.27;100.00
7157;BME280;3620;49.862;8.758;2022-12-29T01:01:37;98537.41;;;11.29;100.00
7157;BME280;3620;49.862;8.758;2022-12-29T01:04:04;98540.78;;;11.31;100.00
7157;BME280;3620;49.862;8.758;2022-12-29T01:06:31;98532.16;;;11.29;100.00
7157;BME280;3620;49.862;8.758;2022-12-29T01:08:58;98521.44;;;11.32;100.00
7157;BME280;3620;49.862;8.758;2022-12-29T01:11:43;98516.56;;;11.26;100.00
7157;BME280;3620;49.862;8.758;2022-12-29T01:14:10;98514.47;;;11.31;100.00
7157;BME280;3620;49.862;8.758;2022-12-29T01:16:36;98522.94;;;11.36;100.00
7157;BME280;3620;49.862;8.758;2022-12-29T01:19:03;98514.47;;;11.31;100.00
7157;BME280;3620;49.862;8.758;2022-12-29T01:21:30;98517.88;;;11.33;100.00
7157;BME280;3620;49.862;8.758;2022-12-29T01:23:57;98512.22;;;11.25;100.00
7157;BME280;3620;49.862;8.758;2022-12-29T01:26:23;98525.19;;;11.28;100.00
7157;BME280;3620;49.862;8.758;2022-12-29T01:28:51;98519.09;;;11.28;100.00
7157;BME280;3620;49.862;8.758;2022-12-29T01:31:17;98529.88;;;11.23;100.00
7157;BME280;3620;49.862;8.758;2022-12-29T01:33:44;98503.88;;;11.33;100.00
7157;BME280;3620;49.862;8.758;2022-12-29T01:36:13;98522.56;;;11.42;100.00
7157;BME280;3620;49.862;8.758;2022-12-29T01:38:40;98513.75;;;11.43;100.00
7157;BME280;3620;49.862;8.758;2022-12-29T01:41:09;98498.59;;;11.47;100.00
7157;BME280;3620;49.862;8.758;2022-12-29T01:43:41;98499.56;;;11.46;100.00
7157;BME280;3620;49.862;8.758;2022-12-29T01:46:15;98492.69;;;11.43;100.00
7157;BME280;3620;49.862;8.758;2022-12-29T01:48:45;98495.22;;;11.45;100.00
7157;BME280;3620;49.862;8.758;2022-12-29T01:51:13;98492.59;;;11.59;100.00
7157;BME280;3620;49.862;8.758;2022-12-29T01:53:40;98492.13;;;11.52;100.00
7157;BME280;3620;49.862;8.758;2022-12-29T01:56:10;98482.69;;;11.62;100.00
7157;BME280;3620;49.862;8.758;2022-12-29T01:58:41;98489.09;;;11.58;100.00
7157;BME280;3620;49.862;8.758;2022-12-29T02:01:10;98472.38;;;11.59;100.00
7157;BME280;3620;49.862;8.758;2022-12-29T02:03:37;98479.25;;;11.62;100.00
7157;BME280;3620;49.862;8.758;2022-12-29T02:06:08;98485.75;;;11.70;100.00
7157;BME280;3620;49.862;8.758;2022-12-29T02:08:37;98487.09;;;11.77;100.00
7157;BME280;3620;49.862;8.758;2022-12-29T02:11:05;98470.31;;;11.93;100.00
7157;BME280;3620;49.862;8.758;2022-12-29T02:13:32;98481.59;;;11.81;100.00
7157;BME280;3620;49.862;8.758;2022-12-29T02:16:11;98492.88;;;11.83;100.00
7157;BME280;3620;49.862;8.758;2022-12-29T02:18:47;98486.47;;;11.87;100.00
7157;BME280;3620;49.862;8.758;2022-12-29T02:21:41;98482.16;;;11.86;100.00
7157;BME280;3620;49.862;8.758;2022-12-29T02:24:37;98485.91;;;11.96;100.00
7157;BME280;3620;49.862;8.758;2022-12-29T02:27:33;98482.75;;;11.91;100.00
7157;BME280;3620;49.862;8.758;2022-12-29T02:30:08;98481.22;;;11.87;100.00
7157;BME280;3620;49.862;8.758;2022-12-29T02:32:47;98488.53;;;11.96;100.00
7157;BME280;3620;49.862;8.758;2022-12-29T02:35:24;98496.09;;;12.02;100.00
7157;BME280;3620;49.862;8.758;2022-12-29T02:37:59;98488.38;;;11.99;100.00
7157;BME280;3620;49.862;8.758;2022-12-29T02:40:35;98478.97;;;11.95;100.00
7157;BME280;3620;49.862;8.758;2022-12-29T02:43:11;98475.75;;;11.90;100.00
7157;BME280;3620;49.862;8.758;2022-12-29T02:45:45;98479.25;;;11.90;100.00
7157;BME280;3620;49.862;8.758;2022-12-29T02:48:20;98463.59;;;12.01;100.00
7157;BME280;3620;49.862;8.758;2022-12-29T02:50:54;98472.72;;;12.10;100.00
7157;BME280;3620;49.862;8.758;2022-12-29T02:53:24;98465.88;;;11.93;100.00
7157;BME280;3620;49.862;8.758;2022-12-29T02:56:06;98483.19;;;11.97;100.00
7157;BME280;3620;49.862;8.758;2022-12-29T02:58:33;98473.50;;;11.98;100.00
7157;BME280;3620;49.862;8.758;2022-12-29T03:01:16;98466.13;;;12.03;100.00
7157;BME280;3620;49.862;8.758;2022-12-29T03:03:59;98472.38;;;12.02;100.00
7157;BME280;3620;49.862;8.758;2022-12-29T03:06:34;98477.97;;;12.10;100.00
7157;BME280;3620;49.862;8.758;2022-12-29T03:09:07;98481.22;;;12.27;100.00
7157;BME280;3620;49.862;8.758;2022-12-29T03:11:45;98471.72;;;12.25;100.00
7157;BME280;3620;49.862;8.758;2022-12-29T03:14:33;98470.41;;;12.18;100.00
7157;BME280;3620;49.862;8.758;2022-12-29T03:17:26;98482.66;;;12.19;100.00
7157;BME280;3620;49.862;8.758;2022-12-29T03:20:01;98464.81;;;12.10;100.00
7157;BME280;3620;49.862;8.758;2022-12-29T03:22:32;98469.91;;;12.13;100.00
7157;BME280;3620;49.862;8.758;2022-12-29T03:25:03;98465.53;;;12.12;100.00
7157;BME280;3620;49.862;8.758;2022-12-29T03:27:34;98461.19;;;12.25;100.00
7157;BME280;3620;49.862;8.758;2022-12-29T03:30:04;98462.22;;;12.22;99.63
7157;BME280;3620;49.862;8.758;2022-12-29T03:32:33;98466.84;;;12.19;99.88
7157;BME280;3620;49.862;8.758;2022-12-29T03:35:03;98450.84;;;12.22;99.39
7157;BME280;3620;49.862;8.758;2022-12-29T03:37:33;98458.69;;;12.36;99.09
7157;BME280;3620;49.862;8.758;2022-12-29T03:40:03;98443.31;;;12.16;98.30
7157;BME280;3620;49.862;8.758;2022-12-29T03:42:32;98437.09;;;12.17;98.55
7157;BME280;3620;49.862;8.758;2022-12-29T03:45:00;98444.28;;;12.15;97.79
7157;BME280;3620;49.862;8.758;2022-12-29T03:47:27;98434.50;;;12.03;98.02
7157;BME280;3620;49.862;8.758;2022-12-29T03:49:53;98436.00;;;12.07;98.02
7157;BME280;3620;49.862;8.758;2022-12-29T03:52:21;98438.28;;;11.99;98.32
7157;BME280;3620;49.862;8.758;2022-12-29T03:54:47;98436.59;;;11.98;98.21
7157;BME280;3620;49.862;8.758;2022-12-29T03:57:14;98429.03;;;12.06;97.84
7157;BME280;3620;49.862;8.758;2022-12-29T03:59:40;98421.03;;;12.07;97.51
7157;BME280;3620;49.862;8.758;2022-12-29T04:02:07;98437.88;;;12.05;97.46
7157;BME280;3620;49.862;8.758;2022-12-29T04:04:33;98422.66;;;11.96;97.22
7157;BME280;3620;49.862;8.758;2022-12-29T04:07:00;98427.00;;;11.97;97.49
7157;BME280;3620;49.862;8.758;2022-12-29T04:09:28;98423.31;;;11.99;97.00
7157;BME280;3620;49.862;8.758;2022-12-29T04:11:56;98427.16;;;12.08;96.68
7157;BME280;3620;49.862;8.758;2022-12-29T04:14:22;98417.16;;;12.13;96.18
7157;BME280;3620;49.862;8.758;2022-12-29T04:16:49;98422.28;;;12.02;96.38
7157;BME280;3620;49.862;8.758;2022-12-29T04:19:15;98416.78;;;12.05;96.09
7157;BME280;3620;49.862;8.758;2022-12-29T04:21:42;98421.13;;;12.06;95.90
7157;BME280;3620;49.862;8.758;2022-12-29T04:24:08;98421.03;;;12.07;95.56
7157;BME280;3620;49.862;8.758;2022-12-29T04:26:36;98415.69;;;12.09;95.06
7157;BME280;3620;49.862;8.758;2022-12-29T04:29:03;98416.88;;;12.17;94.84
7157;BME280;3620;49.862;8.758;2022-12-29T04:31:29;98421.69;;;12.11;95.03
7157;BME280;3620;49.862;8.758;2022-12-29T04:33:56;98416.59;;;12.08;95.01
7157;BME280;3620;49.862;8.758;2022-12-29T04:36:23;98420.03;;;12.22;94.74
7157;BME280;3620;49.862;8.758;2022-12-29T04:38:49;98402.72;;;12.18;94.38
7157;BME280;3620;49.862;8.758;2022-12-29T04:41:16;98413.50;;;12.15;94.38
7157;BME280;3620;49.862;8.758;2022-12-29T04:43:44;98416.00;;;12.17;94.90
7157;BME280;3620;49.862;8.758;2022-12-29T04:46:10;98410.84;;;12.15;93.94
7157;BME280;3620;49.862;8.758;2022-12-29T04:48:36;98411.34;;;12.08;94.54
7157;BME280;3620;49.862;8.758;2022-12-29T04:51:03;98414.13;;;12.19;94.72
7157;BME280;3620;49.862;8.758;2022-12-29T04:53:30;98416.41;;;12.11;94.53
7157;BME280;3620;49.862;8.758;2022-12-29T04:55:56;98415.53;;;11.98;95.70
7157;BME280;3620;49.862;8.758;2022-12-29T04:58:22;98433.66;;;12.02;95.17
7157;BME280;3620;49.862;8.758;2022-12-29T05:00:51;98415.88;;;12.06;95.02
7157;BME280;3620;49.862;8.758;2022-12-29T05:03:18;98422.56;;;11.97;95.67
7157;BME280;3620;49.862;8.758;2022-12-29T05:05:44;98413.41;;;12.03;95.57
7157;BME280;3620;49.862;8.758;2022-12-29T05:08:11;98394.47;;;12.10;95.10
7157;BME280;3620;49.862;8.758;2022-12-29T05:10:37;98419.22;;;12.22;94.44
7157;BME280;3620;49.862;8.758;2022-12-29T05:13:04;98423.19;;;12.15;94.32
7157;BME280;3620;49.862;8.758;2022-12-29T05:15:30;98415.84;;;12.20;94.22
7157;BME280;3620;49.862;8.758;2022-12-29T05:17:58;98422.44;;;12.13;94.17
7157;BME280;3620;49.862;8.758;2022-12-29T05:20:24;98423.47;;;12.10;94.13
7157;BME280;3620;49.862;8.758;2022-12-29T05:22:51;98427.34;;;12.05;94.86
7157;BME280;3620;49.862;8.758;2022-12-29T05:25:17;98414.72;;;12.10;94.33
7157;BME280;3620;49.862;8.758;2022-12-29T05:27:44;98414.53;;;12.13;94.35
7157;BME280;3620;49.862;8.758;2022-12-29T05:30:11;98424.84;;;12.16;94.09
7157;BME280;3620;49.862;8.758;2022-12-29T05:32:38;98416.59;;;12.08;95.05
7157;BME280;3620;49.862;8.758;2022-12-29T05:35:07;98405.34;;;12.18;94.41
7157;BME280;3620;49.862;8.758;2022-12-29T05:37:33;98410.88;;;12.01;94.44
7157;BME280;3620;49.862;8.758;2022-12-29T05:40:00;98422.06;;;12.05;94.24
7157;BME280;3620;49.862;8.758;2022-12-29T05:42:26;98410.34;;;12.23;93.08
7157;BME280;3620;49.862;8.758;2022-12-29T05:44:53;98412.41;;;12.18;93.38
7157;BME280;3620;49.862;8.758;2022-12-29T05:47:19;98411.59;;;12.17;93.54
7157;BME280;3620;49.862;8.758;2022-12-29T05:49:46;98399.03;;;12.21;92.79
7157;BME280;3620;49.862;8.758;2022-12-29T05:52:13;98393.44;;;12.13;93.24
7157;BME280;3620;49.862;8.758;2022-12-29T05:54:40;98384.22;;;12.06;93.16
7157;BME280;3620;49.862;8.758;2022-12-29T05:57:06;98395.41;;;12.09;92.98
7157;BME280;3620;49.862;8.758;2022-12-29T05:59:33;98375.91;;;12.12;92.68
7157;BME280;3620;49.862;8.758;2022-12-29T06:02:00;98374.44;;;12.08;92.86
7157;BME280;3620;49.862;8.758;2022-12-29T06:04:26;98380.78;;;12.18;93.49
7157;BME280;3620;49.862;8.758;2022-12-29T06:06:53;98385.44;;;12.27;92.29
7157;BME280;3620;49.862;8.758;2022-12-29T06:09:20;98384.78;;;12.37;90.97
7157;BME280;3620;49.862;8.758;2022-12-29T06:11:47;98378.97;;;12.45;90.84
7157;BME280;3620;49.862;8.758;2022-12-29T06:14:13;98383.81;;;12.51;90.66
7157;BME280;3620;49.862;8.758;2022-12-29T06:16:40;98383.44;;;12.57;90.36
7157;BME280;3620;49.862;8.758;2022-12-29T06:19:07;98385.53;;;12.52;90.19
7157;BME280;3620;49.862;8.758;2022-12-29T06:21:33;98386.63;;;12.62;89.31
7157;BME280;3620;49.862;8.758;2022-12-29T06:24:00;98392.34;;;12.69;89.54
7157;BME280;3620;49.862;8.758;2022-12-29T06:26:28;98406.03;;;12.74;88.75
7157;BME280;3620;49.862;8.758;2022-12-29T06:28:55;98397.19;;;12.75;89.30
7157;BME280;3620;49.862;8.758;2022-12-29T06:31:21;98400.56;;;12.64;89.88
7157;BME280;3620;49.862;8.758;2022-12-29T06:33:49;98396.34;;;12.74;88.73
7157;BME280;3620;49.862;8.758;2022-12-29T06:36:16;98403.50;;;12.72;88.86
7157;BME280;3620;49.862;8.758;2022-12-29T06:38:42;98389.16;;;12.64;88.83
7157;BME280;3620;49.862;8.758;2022-12-29T06:41:09;98414.06;;;12.60;89.47
7157;BME280;3620;49.862;8.758;2022-12-29T06:43:37;98406.22;;;12.58;89.09
7157;BME280;3620;49.862;8.758;2022-12-29T06:46:04;98399.47;;;12.54;89.47
7157;BME280;3620;49.862;8.758;2022-12-29T06:48:30;98418.47;;;12.59;89.48
7157;BME280;3620;49.862;8.758;2022-12-29T06:50:57;98403.38;;;12.48;89.62
7157;BME280;3620;49.862;8.758;2022-12-29T06:53:23;98399.28;;;12.57;89.67
7157;BME280;3620;49.862;8.758;2022-12-29T06:55:50;98410.19;;;12.51;89.59
7157;BME280;3620;49.862;8.758;2022-12-29T06:58:16;98397.97;;;12.50;89.63
7157;BME280;3620;49.862;8.758;2022-12-29T07:00:44;98399.47;;;12.54;89.42
7157;BME280;3620;49.862;8.758;2022-12-29T07:03:10;98387.44;;;12.50;89.77
7157;BME280;3620;49.862;8.758;2022-12-29T07:05:37;98403.88;;;12.53;89.47
7157;BME280;3620;49.862;8.758;2022-12-29T07:08:04;98404.53;;;12.57;88.88
7157;BME280;3620;49.862;8.758;2022-12-29T07:10:30;98410.88;;;12.67;88.34
7157;BME280;3620;49.862;8.758;2022-12-29T07:12:57;98409.28;;;12.65;87.49
7157;BME280;3620;49.862;8.758;2022-12-29T07:15:23;98414.06;;;12.72;87.54
7157;BME280;3620;49.862;8.758;2022-12-29T07:17:51;98418.72;;;12.81;86.52
7157;BME280;3620;49.862;8.758;2022-12-29T07:20:18;98410.38;;;12.87;86.77
7157;BME280;3620;49.862;8.758;2022-12-29T07:22:44;98412.59;;;12.93;86.85
7157;BME280;3620;49.862;8.758;2022-12-29T07:25:12;98411.34;;;12.86;86.17
7157;BME280;3620;49.862;8.758;2022-12-29T07:27:38;98421.91;;;12.86;88.61
7157;BME280;3620;49.862;8.758;2022-12-29T07:30:05;98410.38;;;12.87;88.43
7157;BME280;3620;49.862;8.758;2022-12-29T07:32:32;98415.13;;;12.82;88.54
7157;BME280;3620;49.862;8.758;2022-12-29T07:35:01;98429.09;;;12.84;88.91
7157;BME280;3620;49.862;8.758;2022-12-29T07:37:27;98427.81;;;12.77;88.91
7157;BME280;3620;49.862;8.758;2022-12-29T07:39:53;98417.75;;;12.82;89.51
7157;BME280;3620;49.862;8.758;2022-12-29T07:42:20;98433.94;;;12.90;89.49
7157;BME280;3620;49.862;8.758;2022-12-29T07:44:46;98437.31;;;12.92;89.55
7157;BME280;3620;49.862;8.758;2022-12-29T07:47:13;98423.81;;;12.84;88.97
7157;BME280;3620;49.862;8.758;2022-12-29T07:49:39;98427.19;;;12.86;88.85
7157;BME280;3620;49.862;8.758;2022-12-29T07:52:07;98426.97;;;12.89;88.80
7157;BME280;3620;49.862;8.758;2022-12-29T07:54:34;98426.56;;;12.95;88.77
7157;BME280;3620;49.862;8.758;2022-12-29T07:57:00;98432.38;;;13.00;86.82
7157;BME280;3620;49.862;8.758;2022-12-29T07:59:27;98436.81;;;13.00;87.15
7157;BME280;3620;49.862;8.758;2022-12-29T08:01:53;98431.19;;;13.04;86.04
7157;BME280;3620;49.862;8.758;2022-12-29T08:04:20;98446.03;;;13.07;84.92
7157;BME280;3620;49.862;8.758;2022-12-29T08:06:46;98447.41;;;13.12;84.87
7157;BME280;3620;49.862;8.758;2022-12-29T08:09:14;98449.78;;;13.03;84.79
7157;BME280;3620;49.862;8.758;2022-12-29T08:11:41;98450.66;;;13.03;84.00
7157;BME280;3620;49.862;8.758;2022-12-29T08:14:08;98443.50;;;13.05;84.01
7157;BME280;3620;49.862;8.758;2022-12-29T08:16:34;98443.88;;;12.99;84.91
7157;BME280;3620;49.862;8.758;2022-12-29T08:19:01;98437.38;;;13.05;84.41
7157;BME280;3620;49.862;8.758;2022-12-29T08:21:28;98447.28;;;13.01;84.04
7157;BME280;3620;49.862;8.758;2022-12-29T08:23:55;98446.31;;;13.02;84.25
7157;BME280;3620;49.862;8.758;2022-12-29T08:26:23;98437.94;;;12.96;84.48
7157;BME280;3620;49.862;8.758;2022-12-29T08:28:52;98439.13;;;13.04;84.64
7157;BME280;3620;49.862;8.758;2022-12-29T08:31:19;98436.06;;;12.98;84.12
7157;BME280;3620;49.862;8.758;2022-12-29T08:33:46;98440.34;;;13.13;85.06
7157;BME280;3620;49.862;8.758;2022-12-29T08:36:12;98435.06;;;13.26;83.80
7157;BME280;3620;49.862;8.758;2022-12-29T08:38:38;98436.63;;;13.15;82.49
7157;BME280;3620;49.862;8.758;2022-12-29T08:41:05;98440.34;;;13.26;82.33
7157;BME280;3620;49.862;8.758;2022-12-29T08:43:33;98429.56;;;13.29;82.04
7157;BME280;3620;49.862;8.758;2022-12-29T08:46:00;98446.47;;;13.39;81.76
7157;BME280;3620;49.862;8.758;2022-12-29T08:48:27;98442.16;;;13.38;81.33
7157;BME280;3620;49.862;8.758;2022-12-29T08:50:53;98441.72;;;13.44;81.44
7157;BME280;3620;49.862;8.758;2022-12-29T08:53:20;98456.41;;;13.48;80.52
7157;BME280;3620;49.862;8.758;2022-12-29T08:55:47;98446.25;;;13.42;80.99
7157;BME280;3620;49.862;8.758;2022-12-29T08:58:20;98445.63;;;13.51;81.18
7157;BME280;3620;49.862;8.758;2022-12-29T09:00:48;98441.81;;;13.55;80.45
7157;BME280;3620;49.862;8.758;2022-12-29T09:03:14;98446.88;;;13.58;80.11
7157;BME280;3620;49.862;8.758;2022-12-29T09:05:41;98448.78;;;13.56;80.29
7157;BME280;3620;49.862;8.758;2022-12-29T09:08:07;98459.13;;;13.59;80.15
7157;BME280;3620;49.862;8.758;2022-12-29T09:10:34;98464.63;;;13.56;80.13
7157;BME280;3620;49.862;8.758;2022-12-29T09:13:00;98461.38;;;13.52;80.39
7157;BME280;3620;49.862;8.758;2022-12-29T09:15:27;98455.97;;;13.54;79.96
7157;BME280;3620;49.862;8.758;2022-12-29T09:17:54;98457.34;;;13.47;80.69
7157;BME280;3620;49.862;8.758;2022-12-29T09:20:21;98460.44;;;13.53;80.54
7157;BME280;3620;49.862;8.758;2022-12-29T09:22:47;98457.44;;;13.58;79.99
7157;BME280;3620;49.862;8.758;2022-12-29T09:25:14;98455.97;;;13.54;80.78
7157;BME280;3620;49.862;8.758;2022-12-29T09:27:41;98463.81;;;13.55;80.32
7157;BME280;3620;49.862;8.758;2022-12-29T09:30:09;98464.41;;;13.59;80.61
7157;BME280;3620;49.862;8.758;2022-12-29T09:32:36;98471.06;;;13.52;79.85
7157;BME280;3620;49.862;8.758;2022-12-29T09:35:05;98470.34;;;13.50;80.98
7157;BME280;3620;49.862;8.758;2022-12-29T09:37:32;98464.41;;;13.59;80.78
7157;BME280;3620;49.862;8.758;2022-12-29T09:39:59;98472.34;;;13.59;80.29
7157;BME280;3620;49.862;8.758;2022-12-29T09:42:29;98478.16;;;13.64;80.94
7157;BME280;3620;49.862;8.758;2022-12-29T09:45:10;98475.19;;;13.56;81.83
7157;BME280;3620;49.862;8.758;2022-12-29T09:47:40;98469.50;;;13.62;81.76
7157;BME280;3620;49.862;8.758;2022-12-29T09:50:16;98470.13;;;13.65;81.43
7157;BME280;3620;49.862;8.758;2022-12-29T09:52:49;98485.13;;;13.65;80.95
7157;BME280;3620;49.862;8.758;2022-12-29T09:55:19;98486.00;;;13.53;82.19
7157;BME280;3620;49.862;8.758;2022-12-29T09:57:49;98476.47;;;13.63;81.07
7157;BME280;3620;49.862;8.758;2022-12-29T10:00:20;98470.66;;;13.58;82.05
7157;BME280;3620;49.862;8.758;2022-12-29T10:02:50;98468.22;;;13.67;81.56
7157;BME280;3620;49.862;8.758;2022-12-29T10:05:27;98467.91;;;13.72;82.05
7157;BME280;3620;49.862;8.758;2022-12-29T10:08:05;98484.91;;;13.68;81.80
7157;BME280;3620;49.862;8.758;2022-12-29T10:10:40;98466.72;;;13.76;81.77
7157;BME280;3620;49.862;8.758;2022-12-29T10:13:18;98455.66;;;13.71;81.62
7157;BME280;3620;49.862;8.758;2022-12-29T10:15:55;98480.66;;;13.78;81.42
7157;BME280;3620;49.862;8.758;2022-12-29T10:18:37;98462.09;;;13.79;80.99
7157;BME280;3620;49.862;8.758;2022-12-29T10:21:17;98466.69;;;14.01;79.81
7157;BME280;3620;49.862;8.758;2022-12-29T10:23:50;98469.84;;;13.93;80.63
7157;BME280;3620;49.862;8.758;2022-12-29T10:26:19;98469.44;;;14.00;80.03
7157;BME280;3620;49.862;8.758;2022-12-29T10:28:49;98467.50;;;14.14;79.42
7157;BME280;3620;49.862;8.758;2022-12-29T10:31:21;98485.47;;;14.09;79.41
7157;BME280;3620;49.862;8.758;2022-12-29T10:33:49;98484.00;;;14.05;79.83
7157;BME280;3620;49.862;8.758;2022-12-29T10:36:26;98501.59;;;14.06;79.76
7157;BME280;3620;49.862;8.758;2022-12-29T10:39:04;98502.00;;;14.00;80.74
7157;BME280;3620;49.862;8.758;2022-12-29T10:41:36;98512.81;;;13.97;81.36
7157;BME280;3620;49.862;8.758;2022-12-29T10:44:04;98500.66;;;13.69;81.92
7157;BME280;3620;49.862;8.758;2022-12-29T10:46:34;98517.81;;;13.64;83.69
7157;BME280;3620;49.862;8.758;2022-12-29T10:49:02;98541.38;;;13.42;87.25
7157;BME280;3620;49.862;8.758;2022-12-29T10:51:32;98557.59;;;13.36;95.26
7157;BME280;3620;49.862;8.758;2022-12-29T10:54:03;98554.06;;;12.83;100.00
7157;BME280;3620;49.862;8.758;2022-12-29T10:56:34;98533.66;;;12.46;100.00
7157;BME280;3620;49.862;8.758;2022-12-29T11:01:58;98536.91;;;12.23;100.00
7157;BME280;3620;49.862;8.758;2022-12-29T11:04:37;98542.56;;;12.31;100.00
7157;BME280;3620;49.862;8.758;2022-12-29T11:07:11;98546.16;;;12.02;100.00
7157;BME280;3620;49.862;8.758;2022-12-29T11:09:39;98551.91;;;11.94;100.00
7157;BME280;3620;49.862;8.758;2022-12-29T11:12:22;98549.53;;;11.90;100.00
7157;BME280;3620;49.862;8.758;2022-12-29T11:15:02;98548.25;;;11.68;100.00
7157;BME280;3620;49.862;8.758;2022-12-29T11:17:29;98557.75;;;11.41;100.00
7157;BME280;3620;49.862;8.758;2022-12-29T11:19:55;98551.75;;;11.39;100.00
7157;BME280;3620;49.862;8.758;2022-12-29T11:22:25;98561.22;;;11.28;100.00
7157;BME280;3620;49.862;8.758;2022-12-29T11:24:54;98552.56;;;11.26;100.00
7157;BME280;3620;49.862;8.758;2022-12-29T11:27:23;98543.06;;;11.23;100.00
7157;BME280;3620;49.862;8.758;2022-12-29T11:29:50;98561.84;;;11.17;100.00
7157;BME280;3620;49.862;8.758;2022-12-29T11:32:19;98555.63;;;11.18;100.00
7157;BME280;3620;49.862;8.758;2022-12-29T11:34:47;98557.06;;;11.24;100.00
7157;BME280;3620;49.862;8.758;2022-12-29T11:37:16;98561.38;;;11.25;100.00
7157;BME280;3620;49.862;8.758;2022-12-29T11:39:50;98556.03;;;11.26;100.00
7157;BME280;3620;49.862;8.758;2022-12-29T11:42:22;98551.16;;;11.34;100.00
7157;BME280;3620;49.862;8.758;2022-12-29T11:44:51;98538.28;;;11.58;100.00
7157;BME280;3620;49.862;8.758;2022-12-29T11:47:27;98552.59;;;11.54;100.00
7157;BME280;3620;49.862;8.758;2022-12-29T11:50:00;98524.81;;;11.34;100.00
7157;BME280;3620;49.862;8.758;2022-12-29T11:52:30;98543.94;;;11.52;100.00
7157;BME280;3620;49.862;8.758;2022-12-29T11:55:03;98537.28;;;11.60;100.00
7157;BME280;3620;49.862;8.758;2022-12-29T11:57:33;98533.19;;;11.70;100.00
7157;BME280;3620;49.862;8.758;2022-12-29T12:00:02;98527.72;;;11.73;100.00
7157;BME280;3620;49.862;8.758;2022-12-29T12:02:41;98532.25;;;11.86;100.00
7157;BME280;3620;49.862;8.758;2022-12-29T12:05:21;98542.22;;;11.95;100.00
7157;BME280;3620;49.862;8.758;2022-12-29T12:07:53;98545.78;;;11.80;100.00
7157;BME280;3620;49.862;8.758;2022-12-29T12:10:27;98545.53;;;11.84;100.00
7157;BME280;3620;49.862;8.758;2022-12-29T12:13:01;98547.28;;;11.69;100.00
7157;BME280;3620;49.862;8.758;2022-12-29T12:15:31;98544.28;;;11.90;100.00
7157;BME280;3620;49.862;8.758;2022-12-29T12:18:04;98530.63;;;11.97;100.00
7157;BME280;3620;49.862;8.758;2022-12-29T12:20:38;98541.06;;;11.85;100.00
7157;BME280;3620;49.862;8.758;2022-12-29T12:23:14;98535.34;;;11.92;100.00
7157;BME280;3620;49.862;8.758;2022-12-29T12:25:55;98547.84;;;11.74;100.00
7157;BME280;3620;49.862;8.758;2022-12-29T12:28:28;98533.09;;;11.86;100.00
7157;BME280;3620;49.862;8.758;2022-12-29T12:30:59;98533.91;;;11.87;100.00
7157;BME280;3620;49.862;8.758;2022-12-29T12:33:31;98519.81;;;11.88;100.00
7157;BME280;3620;49.862;8.758;2022-12-29T12:36:17;98520.56;;;11.90;100.00
7157;BME280;3620;49.862;8.758;2022-12-29T12:38:53;98518.97;;;11.87;100.00
7157;BME280;3620;49.862;8.758;2022-12-29T12:41:28;98537.22;;;11.76;100.00
7157;BME280;3620;49.862;8.758;2022-12-29T12:44:01;98540.72;;;11.91;100.00
7157;BME280;3620;49.862;8.758;2022-12-29T12:47:01;98551.78;;;12.10;99.59
7157;BME280;3620;49.862;8.758;2022-12-29T12:49:46;98532.19;;;12.14;99.87
7157;BME280;3620;49.862;8.758;2022-12-29T12:52:27;98537.84;;;12.22;99.78
7157;BME280;3620;49.862;8.758;2022-12-29T12:55:10;98538.59;;;12.24;99.07
7157;BME280;3620;49.862;8.758;2022-12-29T12:57:49;98538.41;;;12.27;99.15
7157;BME280;3620;49.862;8.758;2022-12-29T13:00:19;98543.09;;;12.36;98.65
7157;BME280;3620;49.862;8.758;2022-12-29T13:02:57;98539.69;;;12.34;98.40
7157;BME280;3620;49.862;8.758;2022-12-29T13:05:40;98539.91;;;12.31;98.06
7157;BME280;3620;49.862;8.758;2022-12-29T13:08:39;98549.41;;;12.33;97.71
7157;BME280;3620;49.862;8.758;2022-12-29T13:11:17;98538.22;;;12.30;97.11
7157;BME280;3620;49.862;8.758;2022-12-29T13:13:58;98548.13;;;12.26;97.12
7157;BME280;3620;49.862;8.758;2022-12-29T13:16:35;98553.84;;;12.33;96.71
7157;BME280;3620;49.862;8.758;2022-12-29T13:19:08;98545.38;;;12.28;96.36
7157;BME280;3620;49.862;8.758;2022-12-29T13:21:48;98553.06;;;12.45;95.92
7157;BME280;3620;49.862;8.758;2022-12-29T13:24:25;98561.53;;;12.50;94.15
7157;BME280;3620;49.862;8.758;2022-12-29T13:26:59;98552.47;;;12.54;94.15
7157;BME280;3620;49.862;8.758;2022-12-29T13:29:34;98546.34;;;12.53;94.45
7157;BME280;3620;49.862;8.758;2022-12-29T13:32:13;98560.50;;;12.52;94.09
7157;BME280;3620;49.862;8.758;2022-12-29T13:34:51;98548.53;;;12.47;93.28
7157;BME280;3620;49.862;8.758;2022-12-29T13:37:22;98548.44;;;12.48;92.24
7157;BME280;3620;49.862;8.758;2022-12-29T13:39:52;98547.38;;;12.51;92.05